Time;durP1;ratioP1;P1;durP2;ratioP2;P2;SDS_P1;SDS_P2;PMS_P1;PMS_P2;Temp;Humidity;BMP_temperature;BMP_pressure;BME280_temperature;BME280_humidity;BME280_pressure;Samples;Min_cycle;Max_cycle;Signal;HPM_P1;HPM_P2
2023/11/18 00:00:25;;;;;;;3.47;3.17;;;;;;;6.29;72.42;96981.16;5021933;28;20456;-70
2023/11/18 00:02:51;;;;;;;3.03;2.73;;;;;;;6.20;73.24;96983.06;5029420;28;20434;-69
2023/11/18 00:05:17;;;;;;;3.20;2.90;;;;;;;6.21;73.01;96987.38;5029606;28;20556;-69
2023/11/18 00:07:43;;;;;;;3.77;3.37;;;;;;;6.18;73.24;96990.91;5029670;28;20424;-70
2023/11/18 00:10:09;;;;;;;3.20;2.60;;;;;;;6.19;73.67;96992.63;5029478;28;20418;-69
2023/11/18 00:12:35;;;;;;;3.10;2.80;;;;;;;6.21;73.52;96989.97;5029861;28;20761;-71
2023/11/18 00:15:04;;;;;;;3.57;2.70;;;;;;;6.14;73.69;96978.78;5029303;28;20203;-69
2023/11/18 00:17:30;;;;;;;3.40;3.10;;;;;;;6.09;73.60;96981.47;5029849;28;20414;-69
2023/11/18 00:19:56;;;;;;;5.17;3.30;;;;;;;6.08;73.88;96981.53;5026563;28;20447;-70
2023/11/18 00:22:21;;;;;;;3.63;3.33;;;;;;;6.02;74.33;96986.81;5017918;28;20478;-68
2023/11/18 00:24:47;;;;;;;8.33;3.50;;;;;;;6.00;74.38;96978.16;5010954;28;20226;-68
2023/11/18 00:27:15;;;;;;;3.80;3.17;;;;;;;6.01;74.31;96985.97;5028747;28;20232;-70
2023/11/18 00:29:41;;;;;;;6.70;3.37;;;;;;;6.05;74.40;96985.03;5029495;28;20180;-70
2023/11/18 00:32:07;;;;;;;4.17;3.77;;;;;;;5.98;74.79;96993.00;5029047;28;20492;-70
2023/11/18 00:34:33;;;;;;;4.23;2.80;;;;;;;6.05;74.63;96986.78;5017505;28;20488;-71
2023/11/18 00:36:58;;;;;;;4.80;3.27;;;;;;;5.85;74.87;96981.84;5021569;28;20434;-69
2023/11/18 00:39:24;;;;;;;4.50;3.10;;;;;;;6.03;74.94;96988.56;5018245;28;20450;-67
2023/11/18 00:41:50;;;;;;;3.83;3.47;;;;;;;6.00;74.83;96989.47;5023530;28;20909;-71
2023/11/18 00:44:15;;;;;;;3.53;2.97;;;;;;;5.96;74.76;96987.78;5017118;28;20549;-70
2023/11/18 00:46:41;;;;;;;7.50;3.20;;;;;;;6.02;74.45;96997.25;5010788;28;20183;-69
2023/11/18 00:49:07;;;;;;;5.10;2.87;;;;;;;5.95;74.56;96993.88;5020246;28;20184;-69
2023/11/18 00:51:32;;;;;;;5.20;3.20;;;;;;;5.96;74.62;96990.41;5018249;28;20774;-68
2023/11/18 00:54:00;;;;;;;3.97;3.53;;;;;;;6.04;74.41;96993.72;5025609;28;20171;-68
2023/11/18 00:56:26;;;;;;;4.57;3.10;;;;;;;6.07;74.15;96988.47;5011459;28;20187;-69
2023/11/18 00:58:52;;;;;;;4.80;3.47;;;;;;;6.05;74.24;96997.22;5018753;28;20445;-68
2023/11/18 01:01:18;;;;;;;9.23;4.20;;;;;;;6.00;74.21;96997.28;5011992;28;20723;-69
2023/11/18 01:03:46;;;;;;;3.93;3.20;;;;;;;5.99;74.77;96992.09;5016064;28;20433;-69
2023/11/18 01:06:12;;;;;;;4.37;3.93;;;;;;;5.92;74.68;96986.94;5014718;28;20247;-70
2023/11/18 01:08:37;;;;;;;4.00;3.00;;;;;;;5.99;74.35;96992.94;5024031;28;20430;-70
2023/11/18 01:11:07;;;;;;;4.80;2.93;;;;;;;6.00;74.75;96994.69;5028835;28;20452;-70
2023/11/18 01:13:32;;;;;;;4.63;2.97;;;;;;;5.99;74.70;96995.56;5038686;28;20230;-70
2023/11/18 01:15:57;;;;;;;4.43;2.77;;;;;;;6.04;74.26;96998.94;5034061;28;20470;-71
2023/11/18 01:18:23;;;;;;;5.73;3.47;;;;;;;6.03;74.47;96997.22;5037435;28;20226;-71
2023/11/18 01:20:49;;;;;;;3.40;3.00;;;;;;;5.95;74.85;96993.88;5040095;28;20176;-69
2023/11/18 01:23:14;;;;;;;3.50;3.00;;;;;;;5.95;74.67;96988.66;5030735;28;20171;-70
2023/11/18 01:25:40;;;;;;;10.27;3.03;;;;;;;5.87;75.03;96987.91;5026883;28;20213;-70
2023/11/18 01:28:06;;;;;;;2.77;2.57;;;;;;;5.82;74.99;96995.78;5012787;28;20262;-69
2023/11/18 01:30:32;;;;;;;3.40;2.90;;;;;;;5.79;75.26;96990.63;5016144;28;20554;-70
2023/11/18 01:33:00;;;;;;;4.40;2.90;;;;;;;5.82;75.00;96994.94;5017314;28;20284;-69
2023/11/18 01:35:29;;;;;;;3.13;2.83;;;;;;;5.81;74.98;96993.19;5022678;28;20443;-70
2023/11/18 01:37:54;;;;;;;5.63;2.53;;;;;;;5.77;75.18;97000.22;5024545;28;20433;-70
2023/11/18 01:40:20;;;;;;;3.63;2.80;;;;;;;5.77;75.33;97001.97;5020724;28;20851;-70
2023/11/18 01:42:46;;;;;;;3.17;2.67;;;;;;;5.84;74.70;97008.81;5010843;28;20216;-70
2023/11/18 01:45:14;;;;;;;5.30;4.90;;;;;;;5.80;74.75;97007.97;5019999;28;20314;-70
2023/11/18 01:47:40;;;;;;;4.07;2.50;;;;;;;5.71;75.17;97003.75;5016536;28;20180;-70
2023/11/18 01:50:08;;;;;;;4.63;2.87;;;;;;;5.66;75.24;97015.13;5021631;28;20525;-70
2023/11/18 01:52:34;;;;;;;3.97;2.80;;;;;;;5.70;75.07;97020.28;5012975;28;20461;-70
2023/11/18 01:55:00;;;;;;;7.50;3.47;;;;;;;5.68;75.23;97031.59;5014273;28;20769;-69
2023/11/18 01:57:26;;;;;;;2.90;2.70;;;;;;;5.71;75.04;97024.59;5009733;28;20187;-70
2023/11/18 01:59:53;;;;;;;3.50;3.20;;;;;;;5.65;75.13;97029.91;5011733;28;20434;-71
2023/11/18 02:02:20;;;;;;;3.20;2.90;;;;;;;5.67;74.83;97025.53;5018700;28;20450;-70
2023/11/18 02:04:47;;;;;;;4.00;2.70;;;;;;;5.72;74.51;97033.28;5017501;28;20462;-70
2023/11/18 02:07:15;;;;;;;3.17;2.87;;;;;;;5.68;74.38;97024.63;5022347;28;20483;-71
2023/11/18 02:09:44;;;;;;;6.70;2.97;;;;;;;5.74;74.37;97031.53;5017798;28;20438;-71
2023/11/18 02:12:29;;;;;;;3.10;2.80;;;;;;;5.70;74.55;97025.47;5009783;28;20886;-69
2023/11/18 02:14:57;;;;;;;4.93;3.00;;;;;;;5.67;74.39;97022.94;5013333;28;20498;-70
2023/11/18 02:17:25;;;;;;;3.03;2.73;;;;;;;5.69;74.28;97022.88;5015252;28;20434;-69
2023/11/18 02:19:53;;;;;;;4.13;3.00;;;;;;;5.69;74.03;97031.59;5015588;28;20430;-69
2023/11/18 02:22:19;;;;;;;6.00;3.83;;;;;;;5.66;74.04;97021.19;5024370;28;20477;-69
2023/11/18 02:24:44;;;;;;;3.30;3.00;;;;;;;5.63;74.00;97026.47;5009712;28;20505;-71
2023/11/18 02:27:13;;;;;;;2.43;2.23;;;;;;;5.51;74.14;97029.25;5012668;28;20521;-69
2023/11/18 02:29:45;;;;;;;7.63;3.07;;;;;;;5.53;74.44;97027.47;5014026;28;20176;-69
2023/11/18 02:32:36;;;;;;;3.47;3.20;;;;;;;5.59;74.15;97029.97;5018025;28;20457;-70
2023/11/18 02:35:05;;;;;;;2.97;2.73;;;;;;;5.57;74.08;97029.13;5014254;28;20489;-69
2023/11/18 02:37:32;;;;;;;10.60;3.20;;;;;;;5.51;74.26;97034.44;5023437;28;20896;-70
2023/11/18 02:40:08;;;;;;;7.80;3.27;;;;;;;5.43;74.06;97042.38;5009276;28;20464;-69
2023/11/18 02:42:37;;;;;;;3.63;3.23;;;;;;;5.58;74.08;97046.50;5008958;28;20454;-68
2023/11/18 02:45:06;;;;;;;4.53;2.90;;;;;;;5.69;73.81;97036.78;5011754;28;20475;-70
2023/11/18 02:47:32;;;;;;;4.70;3.40;;;;;;;5.76;73.91;97041.91;5022762;28;20434;-69
2023/11/18 02:50:05;;;;;;;4.23;3.10;;;;;;;5.65;73.88;97040.31;5017052;28;21279;-70
2023/11/18 02:52:31;;;;;;;5.00;3.27;;;;;;;5.76;73.49;97047.09;5016486;28;20709;-71
2023/11/18 02:54:56;;;;;;;3.27;2.97;;;;;;;5.68;73.73;97045.47;5014693;28;20438;-69
2023/11/18 02:57:21;;;;;;;3.07;2.77;;;;;;;5.71;73.44;97047.16;5011289;28;20592;-69
2023/11/18 02:59:47;;;;;;;2.90;2.57;;;;;;;5.60;74.11;97042.13;5017496;28;20251;-69
2023/11/18 03:02:12;;;;;;;3.00;2.80;;;;;;;5.68;73.62;97034.19;5029539;28;20223;-70
2023/11/18 03:04:38;;;;;;;4.10;3.27;;;;;;;5.60;73.97;97042.13;5019217;28;20212;-69
2023/11/18 03:07:03;;;;;;;2.73;2.53;;;;;;;5.64;73.66;97041.19;5027965;28;20180;-70
2023/11/18 03:09:28;;;;;;;3.33;2.90;;;;;;;5.66;73.61;97041.16;5012624;28;20180;-69
2023/11/18 03:11:54;;;;;;;2.63;2.43;;;;;;;5.62;73.69;97039.47;5018622;28;20227;-69
2023/11/18 03:14:20;;;;;;;2.70;2.50;;;;;;;5.57;73.72;97044.75;5024201;28;20194;-70
2023/11/18 03:16:45;;;;;;;8.63;3.40;;;;;;;5.55;73.94;97048.25;5021573;28;20514;-70
2023/11/18 03:19:11;;;;;;;13.67;3.27;;;;;;;5.52;73.84;97052.63;5025948;28;20181;-70
2023/11/18 03:21:36;;;;;;;2.90;2.70;;;;;;;5.56;73.90;97042.19;5027072;28;20195;-71
2023/11/18 03:24:02;;;;;;;2.90;2.50;;;;;;;5.50;73.86;97049.22;5034119;28;20207;-70
2023/11/18 03:26:27;;;;;;;11.03;2.87;;;;;;;5.45;74.19;97050.13;5025434;28;20179;-70
2023/11/18 03:28:54;;;;;;;3.10;2.63;;;;;;;5.59;73.38;97050.81;5023044;28;20200;-69
2023/11/18 03:31:19;;;;;;;3.20;2.90;;;;;;;5.53;73.91;97048.31;5019278;28;20472;-70
2023/11/18 03:33:45;;;;;;;4.37;3.00;;;;;;;5.48;73.70;97048.38;5025650;28;21591;-69
2023/11/18 03:36:12;;;;;;;2.60;2.40;;;;;;;5.52;73.55;97038.75;5013391;28;20191;-70
2023/11/18 03:38:37;;;;;;;2.87;2.37;;;;;;;5.49;73.54;97039.66;5015695;28;20202;-70
2023/11/18 03:41:03;;;;;;;2.70;2.50;;;;;;;5.64;73.24;97042.94;5021288;28;20461;-68
2023/11/18 03:43:28;;;;;;;5.73;2.60;;;;;;;5.57;73.11;97049.09;5026121;28;20179;-69
2023/11/18 03:45:56;;;;;;;4.43;2.63;;;;;;;5.50;73.29;97036.19;5027272;28;20692;-69
2023/11/18 03:48:22;;;;;;;3.47;2.77;;;;;;;5.56;73.14;97042.19;5030153;28;20176;-70
2023/11/18 03:50:48;;;;;;;3.83;2.70;;;;;;;5.47;73.61;97040.56;5027220;28;20442;-70
2023/11/18 03:53:13;;;;;;;4.30;3.90;;;;;;;5.48;73.55;97047.47;5015804;28;20905;-70
2023/11/18 03:55:38;;;;;;;3.27;2.73;;;;;;;5.53;73.22;97040.50;5016933;28;20176;-68
2023/11/18 03:58:04;;;;;;;4.73;3.27;;;;;;;5.46;73.33;97046.66;5018883;28;20298;-69
2023/11/18 04:00:29;;;;;;;3.73;2.93;;;;;;;5.44;73.12;97041.47;5021566;28;20203;-70
2023/11/18 04:02:58;;;;;;;2.97;2.77;;;;;;;5.50;73.19;97041.41;5024232;28;20246;-69
2023/11/18 04:05:24;;;;;;;3.10;2.80;;;;;;;5.50;73.23;97056.13;5011252;28;20687;-68
2023/11/18 04:07:49;;;;;;;3.67;3.37;;;;;;;5.43;73.57;97051.88;5016327;28;20453;-69
2023/11/18 04:10:15;;;;;;;4.50;3.07;;;;;;;5.46;73.46;97055.34;5018576;28;20281;-69
2023/11/18 04:12:40;;;;;;;3.00;2.53;;;;;;;5.39;73.88;97058.03;5021038;28;20204;-69
2023/11/18 04:15:07;;;;;;;4.30;2.83;;;;;;;5.38;74.20;97061.50;5026753;28;20234;-70
2023/11/18 04:17:33;;;;;;;5.23;3.23;;;;;;;5.53;73.34;97071.72;5013796;28;20678;-70
2023/11/18 04:19:58;;;;;;;5.30;3.00;;;;;;;5.49;73.36;97067.44;5015113;28;20425;-70
2023/11/18 04:22:23;;;;;;;3.27;2.97;;;;;;;5.47;73.61;97046.63;5018184;28;20208;-68
2023/11/18 04:24:49;;;;;;;4.77;2.73;;;;;;;5.42;73.42;97048.44;5016355;28;20208;-68
2023/11/18 04:27:15;;;;;;;2.60;2.40;;;;;;;5.45;73.57;97057.94;5027394;28;20183;-68
2023/11/18 04:29:41;;;;;;;2.97;2.63;;;;;;;5.47;73.26;97056.19;5021443;28;20453;-68
2023/11/18 04:32:09;;;;;;;4.77;3.07;;;;;;;5.46;73.44;97052.72;5025456;28;20195;-69
2023/11/18 04:34:37;;;;;;;3.50;3.20;;;;;;;5.44;73.50;97061.44;5018001;28;20288;-68
2023/11/18 04:37:05;;;;;;;3.43;3.13;;;;;;;5.51;73.10;97052.66;5018043;28;20456;-70
2023/11/18 04:39:35;;;;;;;3.03;2.70;;;;;;;5.52;72.75;97043.97;5023699;28;20435;-68
2023/11/18 04:42:01;;;;;;;4.07;3.40;;;;;;;5.45;73.29;97053.59;5020242;28;20953;-68
2023/11/18 04:44:26;;;;;;;3.30;3.00;;;;;;;5.45;73.30;97053.59;5023959;28;20553;-69
2023/11/18 04:46:52;;;;;;;3.07;2.77;;;;;;;5.35;73.78;97059.81;5022274;28;20545;-69
2023/11/18 04:49:17;;;;;;;5.50;2.63;;;;;;;5.41;73.30;97054.53;5013582;28;20188;-69
2023/11/18 04:51:43;;;;;;;6.83;3.10;;;;;;;5.44;73.16;97051.88;5013854;28;20282;-69
2023/11/18 04:54:08;;;;;;;3.17;2.80;;;;;;;5.48;73.08;97057.88;5017966;28;20219;-70
2023/11/18 04:56:37;;;;;;;6.27;3.43;;;;;;;5.51;73.04;97055.28;5021244;28;20183;-68
2023/11/18 04:59:06;;;;;;;3.30;2.97;;;;;;;5.52;72.90;97052.63;5020051;28;20199;-68
2023/11/18 05:01:32;;;;;;;4.70;2.70;;;;;;;5.57;72.93;97052.56;5009868;28;20459;-70
2023/11/18 05:03:58;;;;;;;3.20;3.00;;;;;;;5.54;72.80;97047.41;5020366;28;20476;-69
2023/11/18 05:06:23;;;;;;;3.37;3.07;;;;;;;5.54;72.78;97038.75;5015763;28;20185;-69
2023/11/18 05:08:49;;;;;;;3.90;3.10;;;;;;;5.43;73.18;97046.69;5022323;28;20439;-70
2023/11/18 05:11:15;;;;;;;4.60;3.03;;;;;;;5.44;73.05;97045.81;5024943;28;20690;-68
2023/11/18 05:13:41;;;;;;;3.70;2.97;;;;;;;5.41;73.11;97051.94;5019763;28;20275;-69
2023/11/18 05:16:07;;;;;;;3.80;3.40;;;;;;;5.42;73.16;97051.03;5010480;28;20553;-69
2023/11/18 05:18:35;;;;;;;4.53;3.17;;;;;;;5.41;73.11;97051.03;5014375;28;20259;-68
2023/11/18 05:21:01;;;;;;;8.90;3.10;;;;;;;5.47;73.09;97045.78;5021514;28;20724;-68
2023/11/18 05:23:29;;;;;;;3.87;3.43;;;;;;;5.38;72.98;97046.75;5022254;28;20433;-69
2023/11/18 05:25:55;;;;;;;3.53;2.77;;;;;;;5.29;73.78;97044.25;5020376;28;20474;-68
2023/11/18 05:28:21;;;;;;;7.90;3.00;;;;;;;5.37;73.45;97041.56;5014937;28;20439;-69
2023/11/18 05:30:47;;;;;;;3.40;3.10;;;;;;;5.35;73.59;97043.34;5013933;28;20461;-70
2023/11/18 05:33:17;;;;;;;3.83;3.47;;;;;;;5.41;73.72;97038.03;5016483;28;20430;-70
2023/11/18 05:35:48;;;;;;;7.30;3.10;;;;;;;5.42;73.71;97039.78;5018288;28;20196;-70
2023/11/18 05:38:16;;;;;;;4.40;4.00;;;;;;;5.49;73.60;97044.00;5023041;28;20430;-71
2023/11/18 05:40:44;;;;;;;5.00;3.07;;;;;;;5.39;73.70;97058.91;5024334;28;20591;-70
2023/11/18 05:43:15;;;;;;;4.03;3.20;;;;;;;5.41;73.63;97045.84;5014688;28;20849;-69
2023/11/18 05:46:14;;;;;;;3.30;3.00;;;;;;;5.36;73.71;97043.28;5012170;28;20467;-69
2023/11/18 05:48:26;;;;;;;3.63;3.33;;;;;;;5.43;73.89;97044.09;5019237;28;21047;-70
2023/11/18 05:50:52;;;;;;;3.67;3.30;;;;;;;5.39;73.77;97045.88;5030244;28;20522;-71
2023/11/18 05:53:17;;;;;;;6.30;3.57;;;;;;;5.29;73.84;97052.06;5027195;28;20191;-69
2023/11/18 05:55:42;;;;;;;3.37;3.03;;;;;;;5.29;74.32;97052.94;5021820;28;20185;-71
2023/11/18 05:58:08;;;;;;;3.60;3.30;;;;;;;5.33;74.13;97042.50;5018040;28;20207;-70
2023/11/18 06:00:34;;;;;;;6.83;3.43;;;;;;;5.44;73.46;97043.22;5026692;28;20583;-70
2023/11/18 06:03:00;;;;;;;3.67;3.00;;;;;;;5.39;73.56;97048.47;5028307;28;20680;-70
2023/11/18 06:05:29;;;;;;;3.77;3.07;;;;;;;5.46;73.60;97047.53;5036747;28;20574;-71
2023/11/18 06:07:54;;;;;;;3.60;3.17;;;;;;;5.42;73.60;97042.38;5034155;28;20237;-69
2023/11/18 06:10:20;;;;;;;8.30;3.97;;;;;;;5.44;73.72;97043.22;5036049;28;20498;-69
2023/11/18 06:12:46;;;;;;;6.13;3.10;;;;;;;5.42;73.54;97037.16;5010904;28;20204;-68
2023/11/18 06:15:14;;;;;;;8.10;3.73;;;;;;;5.41;73.66;97040.63;5018871;28;20180;-70
2023/11/18 06:17:40;;;;;;;5.60;3.83;;;;;;;5.33;74.15;97039.88;5017317;28;20434;-70
2023/11/18 06:20:06;;;;;;;4.30;3.90;;;;;;;5.40;73.78;97047.59;5018514;28;20426;-69
2023/11/18 06:22:31;;;;;;;4.37;3.60;;;;;;;5.43;73.83;97049.28;5019092;28;20226;-68
2023/11/18 06:24:57;;;;;;;5.03;4.07;;;;;;;5.41;73.61;97036.31;5009660;28;20467;-69
2023/11/18 06:27:24;;;;;;;5.70;3.93;;;;;;;5.33;74.33;97037.28;5011985;28;20176;-69
2023/11/18 06:29:50;;;;;;;7.30;4.30;;;;;;;5.38;73.97;97038.94;5016628;28;20211;-71
2023/11/18 06:32:15;;;;;;;5.20;4.70;;;;;;;5.41;73.71;97025.00;5018766;28;20533;-69
2023/11/18 06:34:41;;;;;;;7.87;3.80;;;;;;;5.43;73.43;97034.56;5022316;28;20179;-68
2023/11/18 06:37:07;;;;;;;9.90;4.17;;;;;;;5.33;73.53;97032.94;5021858;28;20176;-69
2023/11/18 06:39:35;;;;;;;7.70;4.57;;;;;;;5.36;73.30;97034.63;5009858;28;20583;-71
2023/11/18 06:42:01;;;;;;;10.33;4.73;;;;;;;5.33;73.93;97042.50;5014779;28;20203;-68
2023/11/18 06:44:26;;;;;;;6.03;5.00;;;;;;;5.37;73.82;97041.56;5010928;28;20489;-70
2023/11/18 06:46:52;;;;;;;6.10;4.30;;;;;;;5.43;73.33;97037.16;5017270;28;20443;-68
2023/11/18 06:49:18;;;;;;;6.20;5.23;;;;;;;5.41;73.38;97051.03;5024118;28;20257;-69
2023/11/18 06:51:44;;;;;;;5.57;5.00;;;;;;;5.31;73.73;97047.69;5023736;28;20868;-69
2023/11/18 06:54:09;;;;;;;8.70;4.87;;;;;;;5.39;73.43;97047.63;5012170;28;20429;-69
2023/11/18 06:56:42;;;;;;;8.03;4.50;;;;;;;5.37;73.57;97052.00;5017510;28;20213;-70
2023/11/18 06:59:12;;;;;;;5.67;4.17;;;;;;;5.35;73.63;97061.56;5020007;28;20192;-70
2023/11/18 07:01:40;;;;;;;7.37;4.70;;;;;;;5.40;73.38;97057.16;5021716;28;20446;-68
2023/11/18 07:04:08;;;;;;;7.63;5.53;;;;;;;5.48;73.24;97061.38;5028121;28;20454;-71
2023/11/18 07:06:37;;;;;;;9.20;4.83;;;;;;;5.55;73.10;97058.69;5027444;28;20457;-68
2023/11/18 07:09:08;;;;;;;7.00;4.70;;;;;;;5.58;72.54;97069.94;5028392;28;20438;-69
2023/11/18 07:11:34;;;;;;;6.47;4.50;;;;;;;5.65;72.29;97075.91;5028746;28;20433;-69
2023/11/18 07:14:00;;;;;;;7.67;4.97;;;;;;;5.93;71.26;97059.00;5034160;28;20406;-69
2023/11/18 07:16:26;;;;;;;6.80;4.20;;;;;;;7.43;66.70;97063.31;5036156;28;20418;-70
2023/11/18 07:18:52;;;;;;;36.73;7.37;;;;;;;8.30;62.80;97061.38;5028970;28;20183;-70
2023/11/18 07:21:18;;;;;;;9.87;4.53;;;;;;;7.91;63.81;97057.03;5016205;28;20227;-68
2023/11/18 07:23:44;;;;;;;12.50;5.50;;;;;;;8.02;63.08;97069.88;5030527;28;20418;-66
2023/11/18 07:26:13;;;;;;;6.83;4.60;;;;;;;7.34;64.82;97068.72;5023873;28;20442;-68
2023/11/18 07:28:39;;;;;;;9.40;5.07;;;;;;;7.08;65.89;97063.16;5022844;28;20757;-70
2023/11/18 07:31:04;;;;;;;11.90;5.23;;;;;;;6.90;66.19;97077.44;5019660;28;20541;-67
2023/11/18 07:33:32;;;;;;;7.73;5.30;;;;;;;6.74;67.04;97074.22;5019931;28;20214;-67
2023/11/18 07:35:58;;;;;;;7.93;5.93;;;;;;;6.59;67.15;97077.97;5022252;28;20187;-69
2023/11/18 07:38:23;;;;;;;8.23;7.23;;;;;;;6.28;69.09;97085.41;5027480;28;20785;-69
2023/11/18 07:40:49;;;;;;;10.60;6.90;;;;;;;6.19;69.50;97077.75;5022195;28;20830;-67
2023/11/18 07:43:16;;;;;;;10.93;7.70;;;;;;;6.13;69.29;97082.16;5027850;28;20286;-67
2023/11/18 07:45:42;;;;;;;14.07;7.57;;;;;;;6.11;69.58;97083.94;5030967;28;20203;-67
2023/11/18 07:48:09;;;;;;;13.80;8.07;;;;;;;6.09;69.69;97090.91;5037894;28;20418;-69
2023/11/18 07:50:40;;;;;;;10.70;8.23;;;;;;;6.11;69.98;97090.91;5026207;28;20227;-68
2023/11/18 07:53:06;;;;;;;10.83;7.57;;;;;;;6.13;69.48;97095.19;5026390;28;20945;-67
2023/11/18 07:55:34;;;;;;;8.10;7.40;;;;;;;6.02;70.05;97091.88;5024676;28;20481;-70
2023/11/18 07:58:00;;;;;;;9.30;8.40;;;;;;;6.10;70.02;97091.81;5027965;28;20929;-67
2023/11/18 08:00:30;;;;;;;13.87;7.87;;;;;;;5.99;70.43;97089.34;5029627;28;20533;-69
2023/11/18 08:02:56;;;;;;;9.03;7.83;;;;;;;5.92;70.14;97093.75;5025809;28;20461;-69
2023/11/18 08:05:23;;;;;;;10.77;6.93;;;;;;;5.97;70.13;97090.25;5029282;28;20881;-67
2023/11/18 08:07:49;;;;;;;9.27;7.33;;;;;;;6.05;70.34;97088.41;5026468;28;20487;-67
2023/11/18 08:10:18;;;;;;;8.60;7.70;;;;;;;6.10;69.83;97089.19;5017812;28;21020;-68
2023/11/18 08:12:44;;;;;;;8.70;7.77;;;;;;;6.09;69.48;97071.81;5027992;28;20489;-68
2023/11/18 08:15:10;;;;;;;8.90;7.73;;;;;;;5.93;70.02;97076.38;5028908;28;21060;-66
2023/11/18 08:17:36;;;;;;;12.87;8.60;;;;;;;5.83;70.32;97077.38;5023736;28;20461;-66
2023/11/18 08:20:13;;;;;;;14.27;11.47;;;;;;;5.85;69.96;97075.63;5026566;28;20262;-67
2023/11/18 08:22:39;;;;;;;15.67;11.60;;;;;;;5.97;70.50;97075.47;5027735;28;20897;-68
2023/11/18 08:25:08;;;;;;;9.57;8.50;;;;;;;5.88;70.46;97083.38;5020950;28;20519;-67
2023/11/18 08:27:33;;;;;;;7.83;6.93;;;;;;;5.88;69.40;97086.88;5029543;28;20480;-68
2023/11/18 08:29:59;;;;;;;8.73;6.20;;;;;;;5.88;70.29;97096.41;5029753;28;20457;-67
2023/11/18 08:32:24;;;;;;;9.20;6.63;;;;;;;5.91;70.43;97106.81;5028164;28;20324;-67
2023/11/18 08:34:51;;;;;;;8.50;6.13;;;;;;;5.67;71.12;97094.97;5029327;28;20176;-67
2023/11/18 08:37:16;;;;;;;9.50;7.30;;;;;;;5.63;71.58;97091.53;5030232;28;20179;-68
2023/11/18 08:39:42;;;;;;;15.60;7.00;;;;;;;5.87;71.17;97086.88;5018897;28;20517;-67
2023/11/18 08:42:07;;;;;;;6.60;5.90;;;;;;;5.89;70.87;97090.34;5032060;28;20548;-68
2023/11/18 08:44:33;;;;;;;10.63;8.00;;;;;;;5.87;71.03;97084.28;5012861;28;20687;-69
2023/11/18 08:46:58;;;;;;;8.10;7.03;;;;;;;5.82;70.99;97079.13;5015966;28;20184;-68
2023/11/18 08:49:25;;;;;;;10.73;7.40;;;;;;;5.76;71.37;97079.22;5028142;28;20266;-67
2023/11/18 08:51:55;;;;;;;7.83;6.43;;;;;;;5.84;71.84;97090.41;5020273;28;20286;-69
2023/11/18 08:54:36;;;;;;;9.33;7.17;;;;;;;5.89;71.58;97101.59;5028910;28;20985;-67
2023/11/18 08:57:23;;;;;;;8.50;6.93;;;;;;;5.90;71.35;97089.44;5036741;28;20422;-69
2023/11/18 08:59:49;;;;;;;8.37;6.53;;;;;;;5.78;71.52;97098.28;5032335;28;20440;-68
2023/11/18 09:02:17;;;;;;;8.33;6.90;;;;;;;5.80;71.42;97085.25;5031088;28;20442;-67
2023/11/18 09:04:43;;;;;;;9.20;7.40;;;;;;;5.87;71.33;97084.28;5024901;28;20494;-68
2023/11/18 09:07:09;;;;;;;7.90;6.60;;;;;;;5.76;71.97;97096.59;5025309;28;21244;-68
2023/11/18 09:09:35;;;;;;;8.47;6.70;;;;;;;5.74;72.02;97091.41;5023643;28;20286;-68
2023/11/18 09:12:02;;;;;;;9.70;7.10;;;;;;;5.82;71.44;97089.56;5024435;28;20536;-67
2023/11/18 09:14:28;;;;;;;13.90;7.40;;;;;;;5.85;71.58;97083.44;5026898;28;20658;-69
2023/11/18 09:16:58;;;;;;;13.60;7.97;;;;;;;5.92;70.86;97092.88;5027489;28;20434;-67
2023/11/18 09:19:25;;;;;;;11.70;7.03;;;;;;;6.06;71.07;97095.31;5019612;28;20188;-69
2023/11/18 09:21:51;;;;;;;15.17;7.10;;;;;;;6.22;71.27;97089.00;5023247;28;20449;-67
2023/11/18 09:24:19;;;;;;;11.93;6.10;;;;;;;6.08;70.64;97083.13;5024014;28;20512;-67
2023/11/18 09:26:50;;;;;;;11.40;6.53;;;;;;;6.13;70.55;97078.72;5019117;28;20431;-67
2023/11/18 09:29:18;;;;;;;9.47;6.40;;;;;;;5.95;70.82;97074.63;5027306;28;20425;-67
2023/11/18 09:31:48;;;;;;;19.30;6.37;;;;;;;6.04;71.01;97078.84;5024673;28;20457;-67
2023/11/18 09:34:17;;;;;;;9.47;6.13;;;;;;;5.96;71.29;97092.00;5025054;28;20793;-67
2023/11/18 09:36:43;;;;;;;10.50;6.23;;;;;;;6.06;70.82;97087.50;5027087;28;20434;-66
2023/11/18 09:39:28;;;;;;;11.10;6.77;;;;;;;6.04;71.00;97097.09;5025608;28;20474;-67
2023/11/18 09:41:56;;;;;;;13.73;6.03;;;;;;;6.05;70.92;97091.00;5024207;28;20481;-67
2023/11/18 09:44:23;;;;;;;17.03;6.30;;;;;;;6.10;70.78;97083.97;5021122;28;20846;-66
2023/11/18 09:46:57;;;;;;;11.20;7.20;;;;;;;5.98;71.40;97092.84;5018690;28;20430;-67
2023/11/18 09:49:33;;;;;;;11.57;6.93;;;;;;;6.08;71.09;97096.16;5024635;28;20430;-71
2023/11/18 09:52:00;;;;;;;12.40;7.00;;;;;;;6.19;71.28;97093.38;5024377;28;20457;-67
2023/11/18 09:54:52;;;;;;;11.33;6.27;;;;;;;6.30;70.02;97094.94;5027065;28;20445;-67
2023/11/18 09:57:29;;;;;;;22.63;7.87;;;;;;;6.45;69.63;97098.19;5014718;28;20555;-67
2023/11/18 10:00:10;;;;;;;24.67;7.10;;;;;;;6.47;69.97;97099.03;5018752;28;20438;-68
2023/11/18 10:02:39;;;;;;;25.93;9.03;;;;;;;6.50;69.73;97089.41;5018364;28;20545;-66
2023/11/18 10:05:12;;;;;;;17.47;9.00;;;;;;;6.54;69.09;97091.09;5025767;28;20469;-67
2023/11/18 10:07:40;;;;;;;12.60;8.37;;;;;;;6.45;70.12;97085.16;5025292;28;20438;-68
2023/11/18 10:10:07;;;;;;;17.87;9.13;;;;;;;6.50;69.75;97086.81;5017797;28;20457;-67
2023/11/18 10:12:39;;;;;;;12.83;6.30;;;;;;;6.46;69.78;97082.53;5020388;28;20885;-68
2023/11/18 10:15:11;;;;;;;14.93;7.50;;;;;;;6.46;69.62;97087.75;5018950;28;20469;-68
2023/11/18 10:20:51;;;;;;;10.30;6.40;;;;;;;6.72;69.05;97081.22;5024210;28;21108;-69
2023/11/18 10:23:19;;;;;;;8.30;6.63;;;;;;;6.96;67.55;97079.91;5015379;28;20925;-66
2023/11/18 10:25:48;;;;;;;15.30;8.40;;;;;;;7.00;67.42;97079.81;5021545;28;20458;-66
2023/11/18 10:28:24;;;;;;;10.23;6.10;;;;;;;7.05;67.05;97076.28;5024768;28;20487;-66
2023/11/18 10:30:57;;;;;;;6.60;5.90;;;;;;;7.20;66.71;97061.19;5023717;28;20433;-66
2023/11/18 10:33:30;;;;;;;11.03;5.83;;;;;;;7.37;66.05;97050.41;5025093;28;20442;-66
2023/11/18 10:35:56;;;;;;;9.70;6.33;;;;;;;7.49;65.65;97067.56;5036253;28;20429;-67
2023/11/18 10:38:25;;;;;;;16.03;10.40;;;;;;;7.41;66.02;97064.22;5017055;28;20460;-68
2023/11/18 10:40:58;;;;;;;10.97;8.40;;;;;;;7.26;66.65;97060.19;5028562;28;20951;-67
2023/11/18 10:43:24;;;;;;;11.13;8.70;;;;;;;7.26;66.70;97060.19;5024858;28;20941;-67
2023/11/18 10:46:14;;;;;;;10.53;7.87;;;;;;;7.46;66.18;97064.13;5022908;28;20473;-67
2023/11/18 10:48:47;;;;;;;11.13;6.33;;;;;;;7.40;66.17;97058.16;5019623;28;20449;-66
2023/11/18 10:51:15;;;;;;;8.30;6.13;;;;;;;7.37;65.69;97055.63;5020066;28;20434;-67
2023/11/18 10:54:00;;;;;;;8.47;6.90;;;;;;;7.49;64.77;97062.34;5014399;28;20500;-66
2023/11/18 10:56:28;;;;;;;7.97;7.17;;;;;;;7.43;65.75;97057.22;5020785;28;20414;-66
2023/11/18 10:58:56;;;;;;;8.03;6.33;;;;;;;7.47;65.92;97058.88;5024408;28;20426;-68
2023/11/18 11:01:28;;;;;;;7.90;6.67;;;;;;;7.36;65.42;97056.50;5020969;28;20469;-66
2023/11/18 11:03:57;;;;;;;9.60;7.93;;;;;;;7.40;66.06;97054.69;5026976;28;20426;-66
2023/11/18 11:06:24;;;;;;;10.37;6.80;;;;;;;7.41;65.67;97064.22;5019229;28;20519;-67
2023/11/18 11:08:52;;;;;;;8.97;6.67;;;;;;;7.44;66.49;97061.56;5026243;28;20995;-67
2023/11/18 11:11:25;;;;;;;7.77;6.47;;;;;;;7.46;65.68;97051.06;5026528;28;20453;-68
2023/11/18 11:13:57;;;;;;;15.93;9.43;;;;;;;7.46;65.52;97051.06;5026492;28;20418;-67
2023/11/18 11:16:34;;;;;;;12.43;7.20;;;;;;;7.43;66.14;97046.78;5013674;28;20423;-66
2023/11/18 11:19:08;;;;;;;11.30;7.50;;;;;;;7.49;66.69;97049.28;5025241;28;20892;-67
2023/11/18 11:21:47;;;;;;;18.40;7.47;;;;;;;7.43;66.67;97047.63;5026811;28;20492;-68
2023/11/18 11:24:27;;;;;;;9.07;6.97;;;;;;;7.33;67.30;97040.03;5026528;28;20557;-66
2023/11/18 11:27:28;;;;;;;8.97;7.30;;;;;;;7.36;67.50;97034.75;5020861;28;20434;-68
2023/11/18 11:30:10;;;;;;;32.73;9.53;;;;;;;7.35;66.69;97046.09;5026050;28;20406;-67
2023/11/18 11:32:45;;;;;;;10.40;7.33;;;;;;;7.32;67.33;97033.97;5010834;28;20553;-67
2023/11/18 11:35:21;;;;;;;11.40;7.67;;;;;;;7.42;67.49;97038.09;5018605;28;20418;-68
2023/11/18 11:37:48;;;;;;;8.07;7.27;;;;;;;7.44;66.36;97040.69;5025757;28;20498;-69
2023/11/18 11:40:21;;;;;;;12.93;9.37;;;;;;;7.40;67.37;97047.72;5026114;28;20406;-67
2023/11/18 11:42:54;;;;;;;9.77;8.63;;;;;;;7.41;67.05;97044.19;5024512;28;20531;-69
2023/11/18 11:45:22;;;;;;;10.60;7.90;;;;;;;7.55;66.91;97038.69;5025601;28;21090;-66